createdAt,value
2022-12-17T00:03:43.576Z,78.78
2022-12-17T00:09:05.243Z,77.20
2022-12-17T00:14:25.580Z,81.22
2022-12-17T00:19:46.111Z,76.88
2022-12-17T00:25:07.692Z,86.28
2022-12-17T00:30:28.997Z,85.47
2022-12-17T00:35:49.248Z,69.83
2022-12-17T00:41:11.881Z,79.57
2022-12-17T00:46:32.429Z,67.65
2022-12-17T00:51:52.909Z,73.97
2022-12-17T00:57:14.884Z,70.30
2022-12-17T01:02:35.298Z,66.20
2022-12-17T01:07:55.868Z,70.22
2022-12-17T01:13:18.042Z,72.47
2022-12-17T01:18:39.193Z,67.75
2022-12-17T01:23:59.695Z,70.28
2022-12-17T01:29:21.563Z,66.43
2022-12-17T01:34:41.915Z,73.40
2022-12-17T01:40:02.282Z,66.32
2022-12-17T01:45:30.350Z,64.68
2022-12-17T01:50:55.272Z,65.13
2022-12-17T01:56:16.148Z,59.08
2022-12-17T02:01:39.268Z,60.67
2022-12-17T02:07:08.997Z,71.07
2022-12-17T02:12:40.652Z,64.22
2022-12-17T02:18:08.127Z,67.32
2022-12-17T02:23:49.722Z,55.38
2022-12-17T02:29:13.943Z,59.53
2022-12-17T02:34:34.377Z,55.88
2022-12-17T02:39:53.902Z,49.85
2022-12-17T02:45:32.765Z,54.78
2022-12-17T02:50:53.414Z,56.60
2022-12-17T02:56:13.847Z,52.50
2022-12-17T03:01:36.211Z,54.40
2022-12-17T03:06:58.073Z,49.20
2022-12-17T03:12:19.449Z,49.67
2022-12-17T03:17:40.930Z,54.65
2022-12-17T03:23:01.312Z,49.30
2022-12-17T03:28:23.653Z,53.10
2022-12-17T03:33:48.125Z,46.78
2022-12-17T03:39:08.300Z,46.10
2022-12-17T03:44:28.397Z,49.28
2022-12-17T03:49:50.066Z,41.53
2022-12-17T03:55:10.310Z,42.83
2022-12-17T04:00:31.583Z,46.28
2022-12-17T04:05:53.201Z,40.33
2022-12-17T04:11:13.644Z,48.92
2022-12-17T04:16:34.180Z,45.75
2022-12-17T04:21:55.610Z,48.58
2022-12-17T04:27:15.947Z,40.90
2022-12-17T04:32:36.264Z,54.60
2022-12-17T04:37:57.813Z,45.70
2022-12-17T04:43:25.237Z,42.20
2022-12-17T04:48:45.457Z,43.42
2022-12-17T04:54:07.113Z,48.28
2022-12-17T04:59:27.281Z,52.25
2022-12-17T05:04:47.647Z,48.20
2022-12-17T05:10:09.089Z,43.90
2022-12-17T05:15:29.381Z,45.72
2022-12-17T05:20:49.634Z,48.05
2022-12-17T05:26:21.530Z,47.28
2022-12-17T05:31:42.415Z,46.33
2022-12-17T05:37:03.215Z,46.58
2022-12-17T05:42:33.448Z,46.83
2022-12-17T05:47:53.987Z,50.10
2022-12-17T05:53:20.293Z,51.13
2022-12-17T05:58:42.076Z,44.92
2022-12-17T06:04:02.384Z,45.15
2022-12-17T06:09:23.169Z,45.58
2022-12-17T06:14:44.581Z,48.50
2022-12-17T06:20:04.823Z,62.85
2022-12-17T06:25:25.529Z,45.33
2022-12-17T06:30:47.582Z,53.47
2022-12-17T06:41:28.359Z,41.40
2022-12-17T06:46:49.905Z,41.03
2022-12-17T06:52:10.051Z,39.22
2022-12-17T06:57:30.446Z,37.42
2022-12-17T07:02:52.013Z,42.35
2022-12-17T07:08:15.747Z,44.15
2022-12-17T07:13:36.197Z,46.88
2022-12-17T07:18:58.770Z,47.97
2022-12-17T07:24:19.273Z,44.30
2022-12-17T07:29:39.444Z,75.90
2022-12-17T07:35:00.973Z,110.00
2022-12-17T07:40:21.297Z,46.72
2022-12-17T07:45:41.650Z,31.52
2022-12-17T07:51:07.265Z,31.92
2022-12-17T07:56:27.621Z,39.03
2022-12-17T08:01:48.134Z,47.03
2022-12-17T08:07:14.004Z,46.10
2022-12-17T08:12:34.921Z,46.08
2022-12-17T08:17:55.295Z,54.55
2022-12-17T08:23:23.362Z,50.97
2022-12-17T08:28:51.336Z,70.38
2022-12-17T08:34:14.935Z,76.43
2022-12-17T08:39:36.735Z,62.17
2022-12-17T08:44:57.170Z,62.90
2022-12-17T08:50:17.610Z,55.92
2022-12-17T08:55:39.400Z,57.92
2022-12-17T09:01:00.555Z,60.88
2022-12-17T09:06:19.958Z,62.63
2022-12-17T09:11:41.685Z,53.45
2022-12-17T09:17:02.197Z,59.38
2022-12-17T09:22:22.572Z,49.38
2022-12-17T09:27:44.462Z,63.45
2022-12-17T09:33:04.744Z,57.92
2022-12-17T09:38:25.247Z,57.67
2022-12-17T09:43:55.983Z,56.92
2022-12-17T09:49:20.607Z,61.00
2022-12-17T09:54:49.051Z,66.00
2022-12-17T10:00:10.547Z,60.92
2022-12-17T10:05:44.762Z,62.08
2022-12-17T10:11:05.294Z,56.30
2022-12-17T10:16:42.712Z,55.92
2022-12-17T10:22:03.237Z,52.25
2022-12-17T10:27:28.319Z,51.38
2022-12-17T10:32:50.459Z,37.58
2022-12-17T10:38:11.077Z,44.08
2022-12-17T10:43:41.794Z,37.22
2022-12-17T10:49:08.288Z,33.88
2022-12-17T10:54:47.039Z,37.63
2022-12-17T11:00:09.859Z,39.25
2022-12-17T11:05:44.069Z,35.70
2022-12-17T11:11:05.847Z,35.78
2022-12-17T11:16:39.730Z,37.10
2022-12-17T11:22:03.551Z,35.08
2022-12-17T11:27:27.351Z,33.10
2022-12-17T11:33:05.190Z,31.08
2022-12-17T11:38:40.700Z,30.98
2022-12-17T11:44:09.245Z,36.08
2022-12-17T11:49:37.660Z,37.00
2022-12-17T11:55:07.306Z,30.95
2022-12-17T12:00:35.053Z,59.63
2022-12-17T12:06:04.598Z,54.67
2022-12-17T12:11:38.836Z,32.50
2022-12-17T12:17:07.811Z,35.58
2022-12-17T12:22:37.623Z,30.77
2022-12-17T12:28:15.847Z,35.30
2022-12-17T12:33:46.554Z,33.65
2022-12-17T12:39:12.074Z,31.40
2022-12-17T12:44:40.576Z,23.63
2022-12-17T12:50:10.739Z,28.70
2022-12-17T12:55:31.814Z,36.30
2022-12-17T13:00:57.318Z,31.42
2022-12-17T13:06:00.241Z,37.78
2022-12-17T13:11:13.100Z,29.92
2022-12-17T13:16:27.246Z,35.90
2022-12-17T13:21:31.699Z,32.72
2022-12-17T13:26:45.266Z,39.40
2022-12-17T13:32:03.619Z,34.70
2022-12-17T13:37:11.857Z,30.00
2022-12-17T13:42:27.991Z,33.15
2022-12-17T13:47:34.522Z,32.42
2022-12-17T13:52:37.691Z,35.65
2022-12-17T13:57:46.695Z,49.08
2022-12-17T14:02:51.790Z,43.65
2022-12-17T14:07:59.535Z,33.50
2022-12-17T14:13:07.335Z,32.10
2022-12-17T14:18:15.824Z,31.63
2022-12-17T14:23:27.165Z,33.92
2022-12-17T14:28:34.506Z,29.92
2022-12-17T14:33:39.582Z,31.38
2022-12-17T14:38:54.864Z,35.35
2022-12-17T14:44:02.245Z,37.30
2022-12-17T14:49:18.564Z,38.78
2022-12-17T14:54:30.803Z,34.33
2022-12-17T14:59:35.398Z,38.33
2022-12-17T15:04:40.422Z,44.92
2022-12-17T15:09:44.157Z,45.55
2022-12-17T15:14:47.681Z,49.78
2022-12-17T15:19:56.079Z,42.22
2022-12-17T15:24:59.235Z,47.80
2022-12-17T15:30:02.064Z,45.47
2022-12-17T15:35:07.293Z,43.85
2022-12-17T15:40:12.111Z,44.05
2022-12-17T15:45:14.967Z,45.67
2022-12-17T15:50:19.234Z,41.65
2022-12-17T15:55:22.157Z,43.28
2022-12-17T16:00:25.442Z,36.08
2022-12-17T16:05:30.846Z,49.53
2022-12-17T16:10:33.745Z,46.63
2022-12-17T16:15:36.678Z,44.92
2022-12-17T16:20:41.137Z,43.25
2022-12-17T16:25:44.005Z,77.45
2022-12-17T16:30:46.977Z,45.50
2022-12-17T16:35:53.179Z,50.15
2022-12-17T16:40:57.494Z,47.45
2022-12-17T16:46:00.483Z,48.05
2022-12-17T16:51:16.327Z,51.80
2022-12-17T16:56:20.907Z,62.25
2022-12-17T17:01:26.471Z,54.15
2022-12-17T17:06:33.813Z,50.90
2022-12-17T17:11:37.134Z,51.10
2022-12-17T17:16:40.047Z,50.17
2022-12-17T17:21:50.665Z,43.55
2022-12-17T17:26:55.913Z,45.10
2022-12-17T17:32:10.311Z,42.67
2022-12-17T17:37:15.706Z,38.25
2022-12-17T17:42:18.535Z,48.53
2022-12-17T17:47:21.348Z,47.50
2022-12-17T17:52:25.534Z,46.42
2022-12-17T17:57:28.610Z,41.10
2022-12-17T18:02:31.585Z,38.25
2022-12-17T18:07:35.972Z,44.17
2022-12-17T18:12:56.731Z,48.13
2022-12-17T18:17:59.613Z,47.00
2022-12-17T18:23:04.239Z,46.90
2022-12-17T18:28:07.160Z,44.35
2022-12-17T18:33:09.992Z,59.75
2022-12-17T18:38:14.538Z,58.92
2022-12-17T18:43:26.411Z,49.63
2022-12-17T18:48:29.200Z,62.40
2022-12-17T18:53:33.580Z,53.67
2022-12-17T18:58:36.858Z,50.75
2022-12-17T19:03:40.139Z,55.85
2022-12-17T19:08:44.617Z,50.22
2022-12-17T19:13:51.579Z,42.13
2022-12-17T19:18:56.471Z,34.47
2022-12-17T19:24:04.110Z,53.22
2022-12-17T19:29:08.499Z,47.97
2022-12-17T19:34:13.560Z,48.75
2022-12-17T19:39:20.757Z,40.83
2022-12-17T19:44:23.577Z,49.92
2022-12-17T19:49:26.451Z,54.33
2022-12-17T19:54:30.857Z,36.78
2022-12-17T19:59:33.782Z,52.72
2022-12-17T20:04:36.785Z,48.45
2022-12-17T20:09:44.121Z,46.65
2022-12-17T20:14:46.930Z,59.72
2022-12-17T20:19:53.326Z,47.20
2022-12-17T20:25:01.403Z,47.65
2022-12-17T20:30:05.122Z,51.83
2022-12-17T20:35:09.122Z,49.03
2022-12-17T20:40:13.497Z,52.40
2022-12-17T20:45:16.383Z,47.50
2022-12-17T20:50:19.326Z,74.45
2022-12-17T20:55:29.378Z,43.28
2022-12-17T21:00:34.415Z,48.88
2022-12-17T21:05:37.227Z,51.95
2022-12-17T21:10:41.407Z,53.50
2022-12-17T21:15:50.093Z,54.28
2022-12-17T21:20:57.621Z,49.03
2022-12-17T21:26:04.174Z,55.42
2022-12-17T21:31:17.474Z,55.08
2022-12-17T21:36:23.278Z,43.75
2022-12-17T21:41:29.622Z,54.55
2022-12-17T21:46:33.641Z,58.72
2022-12-17T21:51:36.633Z,47.30
2022-12-17T21:56:40.881Z,44.25
2022-12-17T22:01:43.874Z,42.97
2022-12-17T22:06:52.302Z,56.72
2022-12-17T22:12:28.650Z,48.88
2022-12-17T22:17:31.514Z,47.13
2022-12-17T22:22:35.163Z,43.30
2022-12-17T22:27:40.088Z,40.65
2022-12-17T22:33:07.282Z,38.55
2022-12-17T22:42:17.242Z,49.25
2022-12-17T22:44:41.674Z,40.33
2022-12-17T22:49:14.153Z,44.60
2022-12-17T22:54:17.086Z,42.97
2022-12-17T22:59:21.586Z,35.25
2022-12-17T23:04:24.535Z,55.67
2022-12-17T23:09:27.455Z,38.17
2022-12-17T23:14:31.745Z,40.83
2022-12-17T23:19:34.596Z,36.20
2022-12-17T23:24:37.506Z,42.60
2022-12-17T23:29:41.776Z,40.03
2022-12-17T23:34:44.701Z,35.80
2022-12-17T23:39:47.622Z,37.08
2022-12-17T23:44:52.252Z,34.22
2022-12-17T23:49:55.138Z,36.15
2022-12-17T23:54:59.180Z,37.17
